createdAt,value
2023-03-02T00:00:11.598Z,7.20
2023-03-02T00:02:40.898Z,7.77
2023-03-02T00:05:10.104Z,7.93
2023-03-02T00:07:38.375Z,7.63
2023-03-02T00:10:07.758Z,7.03
2023-03-02T00:12:35.701Z,6.90
2023-03-02T00:15:03.400Z,8.20
2023-03-02T00:17:31.028Z,7.30
2023-03-02T00:21:00.296Z,6.87
2023-03-02T00:23:05.033Z,7.70
2023-03-02T00:25:32.731Z,6.97
2023-03-02T00:28:00.416Z,7.63
2023-03-02T00:30:28.499Z,7.40
2023-03-02T00:32:58.445Z,7.90
2023-03-02T00:35:28.043Z,7.90
2023-03-02T00:37:56.072Z,7.27
2023-03-02T00:40:23.739Z,7.30
2023-03-02T00:42:51.420Z,7.33
2023-03-02T00:45:19.502Z,8.80
2023-03-02T00:47:47.128Z,7.10
2023-03-02T00:50:15.129Z,7.70
2023-03-02T00:52:44.166Z,7.10
2023-03-02T00:55:11.875Z,8.37
2023-03-02T00:57:39.439Z,6.60
2023-03-02T01:00:08.260Z,7.67
2023-03-02T01:02:35.991Z,7.30
2023-03-02T01:05:03.868Z,8.00
2023-03-02T01:07:31.490Z,7.83
2023-03-02T01:10:00.544Z,7.87
2023-03-02T01:12:28.250Z,8.20
2023-03-02T01:14:55.927Z,7.90
2023-03-02T01:17:25.233Z,8.30
2023-03-02T01:19:53.344Z,8.50
2023-03-02T01:22:21.839Z,7.50
2023-03-02T01:24:49.842Z,9.23
2023-03-02T01:27:21.024Z,8.10
2023-03-02T01:29:50.648Z,7.93
2023-03-02T01:32:18.534Z,7.90
2023-03-02T01:34:46.275Z,6.80
2023-03-02T01:37:13.894Z,8.57
2023-03-02T01:39:41.698Z,8.00
2023-03-02T01:42:09.278Z,6.77
2023-03-02T01:44:41.940Z,8.53
2023-03-02T01:47:15.815Z,8.30
2023-03-02T01:49:52.460Z,8.30
2023-03-02T01:52:21.039Z,8.50
2023-03-02T01:54:50.021Z,8.13
2023-03-02T01:57:23.654Z,7.80
2023-03-02T01:59:56.123Z,6.57
2023-03-02T02:02:24.541Z,7.50
2023-03-02T02:04:52.756Z,7.13
2023-03-02T02:07:20.483Z,7.37
2023-03-02T02:09:49.509Z,8.07
2023-03-02T02:12:18.685Z,8.00
2023-03-02T02:14:48.578Z,8.00
2023-03-02T02:17:19.533Z,7.47
2023-03-02T02:20:05.653Z,8.30
2023-03-02T02:22:43.843Z,8.53
2023-03-02T02:25:33.790Z,9.17
2023-03-02T02:28:08.513Z,7.67
2023-03-02T02:30:36.959Z,9.00
2023-03-02T02:33:05.727Z,8.13
2023-03-02T02:35:36.549Z,6.33
2023-03-02T02:38:05.887Z,8.27
2023-03-02T02:43:19.461Z,6.60
2023-03-02T02:45:48.196Z,7.70
2023-03-02T02:48:17.759Z,6.53
2023-03-02T02:50:45.994Z,7.50
2023-03-02T02:53:15.716Z,7.73
2023-03-02T02:55:44.204Z,7.87
2023-03-02T02:58:28.444Z,7.73
2023-03-02T03:00:56.453Z,7.37
2023-03-02T03:03:31.242Z,7.73
2023-03-02T03:06:00.423Z,7.53
2023-03-02T03:08:52.997Z,8.60
2023-03-02T03:11:24.244Z,7.50
2023-03-02T03:13:56.829Z,6.83
2023-03-02T03:16:25.570Z,6.33
2023-03-02T03:18:54.592Z,7.50
2023-03-02T03:21:22.483Z,7.00
2023-03-02T03:23:50.105Z,6.90
2023-03-02T03:26:17.775Z,6.63
2023-03-02T03:28:45.421Z,8.20
2023-03-02T03:31:14.563Z,7.67
2023-03-02T03:33:42.169Z,8.10
2023-03-02T03:36:09.937Z,6.27
2023-03-02T03:38:37.731Z,7.13
2023-03-02T03:41:05.590Z,6.93
2023-03-02T03:43:33.309Z,7.97
2023-03-02T03:46:01.073Z,8.30
2023-03-02T03:48:30.289Z,8.07
2023-03-02T03:51:01.506Z,7.90
2023-03-02T03:53:29.401Z,7.80
2023-03-02T03:55:57.965Z,6.67
2023-03-02T03:58:26.520Z,7.50
2023-03-02T04:00:54.489Z,7.70
2023-03-02T04:03:22.381Z,7.43
2023-03-02T04:05:51.581Z,7.43
2023-03-02T04:08:19.203Z,7.47
2023-03-02T04:10:47.468Z,7.80
2023-03-02T04:13:15.185Z,7.60
2023-03-02T04:15:47.288Z,8.30
2023-03-02T04:18:15.001Z,6.70
2023-03-02T04:20:42.727Z,8.67
2023-03-02T04:23:11.757Z,6.67
2023-03-02T04:25:39.296Z,7.37
2023-03-02T04:28:06.942Z,6.97
2023-03-02T04:30:34.630Z,6.70
2023-03-02T04:33:02.349Z,7.90
2023-03-02T04:35:29.953Z,7.07
2023-03-02T04:37:57.594Z,8.30
2023-03-02T04:40:26.781Z,7.63
2023-03-02T04:42:54.321Z,7.40
2023-03-02T04:45:22.401Z,7.40
2023-03-02T04:47:49.987Z,6.97
2023-03-02T04:50:17.629Z,7.80
2023-03-02T04:52:45.259Z,7.33
2023-03-02T04:55:17.414Z,6.37
2023-03-02T04:57:46.343Z,7.00
2023-03-02T05:00:14.754Z,5.83
2023-03-02T05:02:42.796Z,6.30
2023-03-02T05:05:13.971Z,6.30
2023-03-02T05:07:41.966Z,7.33
2023-03-02T05:10:11.062Z,7.30
2023-03-02T05:12:54.718Z,5.97
2023-03-02T05:15:25.335Z,6.33
2023-03-02T05:17:53.224Z,7.40
2023-03-02T05:20:28.623Z,6.83
2023-03-02T05:23:00.573Z,7.07
2023-03-02T05:25:30.381Z,7.40
2023-03-02T05:27:58.965Z,7.17
2023-03-02T05:31:00.896Z,5.47
2023-03-02T05:37:29.011Z,7.33
2023-03-02T05:39:57.077Z,6.40
2023-03-02T05:42:26.323Z,5.97
2023-03-02T05:44:59.052Z,5.40
2023-03-02T05:47:29.779Z,6.47
2023-03-02T05:50:19.497Z,6.20
2023-03-02T05:53:04.874Z,7.10
2023-03-02T05:55:47.171Z,6.60
2023-03-02T05:58:17.817Z,7.70
2023-03-02T06:00:56.089Z,6.50
2023-03-02T06:03:27.431Z,6.73
2023-03-02T06:05:56.916Z,6.00
2023-03-02T06:08:24.497Z,6.33
2023-03-02T06:10:58.376Z,6.70
2023-03-02T06:16:51.960Z,8.67
2023-03-02T06:19:20.971Z,8.90
2023-03-02T06:21:48.514Z,5.93
2023-03-02T06:24:16.106Z,6.00
2023-03-02T06:26:43.946Z,6.10
2023-03-02T06:29:13.189Z,6.80
2023-03-02T06:31:40.812Z,5.73
2023-03-02T06:34:08.337Z,7.30
2023-03-02T06:36:38.715Z,6.83
2023-03-02T06:39:06.906Z,6.00
2023-03-02T06:41:34.651Z,7.80
2023-03-02T06:44:02.525Z,8.87
2023-03-02T06:46:30.139Z,11.00
2023-03-02T06:48:57.693Z,14.43
2023-03-02T06:51:25.145Z,7.93
2023-03-02T06:53:53.966Z,7.13
2023-03-02T06:56:21.460Z,6.90
2023-03-02T06:58:48.969Z,7.70
2023-03-02T07:01:16.682Z,7.27
2023-03-02T07:03:44.594Z,6.33
2023-03-02T07:06:12.581Z,7.20
2023-03-02T07:08:40.270Z,6.20
2023-03-02T07:11:11.527Z,7.60
2023-03-02T07:13:39.541Z,6.90
2023-03-02T07:16:08.881Z,6.90
2023-03-02T07:18:37.117Z,7.90
2023-03-02T07:21:05.284Z,7.63
2023-03-02T07:23:33.035Z,7.40
2023-03-02T07:26:00.532Z,6.50
2023-03-02T07:28:31.886Z,7.70
2023-03-02T07:30:59.530Z,7.10
2023-03-02T07:33:27.623Z,7.27
2023-03-02T07:35:55.192Z,6.80
2023-03-02T07:38:22.823Z,6.33
2023-03-02T07:40:50.609Z,6.50
2023-03-02T07:43:18.296Z,6.23
2023-03-02T07:45:47.193Z,7.30
2023-03-02T07:48:14.819Z,6.53
2023-03-02T07:50:42.287Z,6.40
2023-03-02T07:53:09.891Z,7.40
2023-03-02T07:55:41.664Z,7.57
2023-03-02T07:58:09.552Z,6.93
2023-03-02T08:00:37.280Z,7.30
2023-03-02T08:03:06.417Z,6.20
2023-03-02T08:05:34.208Z,7.20
2023-03-02T08:08:01.784Z,6.87
2023-03-02T08:10:29.486Z,6.50
2023-03-02T08:12:57.260Z,6.93
2023-03-02T08:15:24.776Z,6.43
2023-03-02T08:17:52.978Z,7.00
2023-03-02T08:20:22.008Z,7.90
2023-03-02T08:22:49.596Z,7.10
2023-03-02T08:25:17.235Z,7.33
2023-03-02T08:27:45.912Z,7.03
2023-03-02T08:30:14.522Z,7.40
2023-03-02T08:32:42.117Z,7.03
2023-03-02T08:35:10.150Z,7.20
2023-03-02T08:37:39.101Z,6.20
2023-03-02T08:40:08.043Z,7.27
2023-03-02T08:42:35.644Z,8.10
2023-03-02T08:45:03.947Z,6.30
2023-03-02T08:47:32.458Z,5.47
2023-03-02T08:50:00.148Z,7.60
2023-03-02T08:52:32.916Z,7.07
2023-03-02T08:55:03.734Z,8.33
2023-03-02T08:57:31.717Z,6.93
2023-03-02T08:59:59.234Z,7.13
2023-03-02T09:02:26.902Z,7.73
2023-03-02T09:04:55.763Z,8.13
2023-03-02T09:07:23.408Z,8.03
2023-03-02T09:09:51.004Z,7.70
2023-03-02T09:12:20.041Z,6.10
2023-03-02T09:14:47.647Z,7.77
2023-03-02T09:17:15.661Z,6.80
2023-03-02T09:19:44.654Z,8.13
2023-03-02T09:22:12.556Z,7.33
2023-03-02T09:24:40.061Z,7.67
2023-03-02T09:27:07.547Z,6.20
2023-03-02T09:29:36.440Z,6.40
2023-03-02T09:32:04.196Z,6.90
2023-03-02T09:34:31.786Z,8.10
2023-03-02T09:36:59.325Z,8.47
2023-03-02T09:39:26.935Z,8.07
2023-03-02T09:42:15.080Z,7.87
2023-03-02T09:44:59.391Z,8.23
2023-03-02T09:47:35.742Z,6.47
2023-03-02T09:50:12.227Z,7.83
2023-03-02T09:52:42.245Z,7.50
2023-03-02T09:55:14.324Z,8.33
2023-03-02T09:57:42.188Z,8.07
2023-03-02T10:00:19.898Z,7.03
2023-03-02T10:02:49.966Z,8.07
2023-03-02T10:05:29.152Z,6.93
2023-03-02T10:07:59.061Z,7.20
2023-03-02T10:10:30.455Z,7.10
2023-03-02T10:13:06.899Z,7.90
2023-03-02T10:15:39.749Z,7.13
2023-03-02T10:18:17.183Z,6.93
2023-03-02T10:20:48.974Z,10.10
2023-03-02T10:23:27.630Z,8.33
2023-03-02T10:26:01.084Z,7.40
2023-03-02T10:28:33.193Z,6.97
2023-03-02T10:31:09.564Z,7.73
2023-03-02T10:33:38.547Z,7.57
2023-03-02T10:36:07.077Z,7.07
2023-03-02T10:38:38.304Z,6.87
2023-03-02T10:41:08.532Z,7.10
2023-03-02T10:43:38.179Z,7.17
2023-03-02T10:46:08.681Z,7.23
2023-03-02T10:48:49.675Z,8.40
2023-03-02T10:51:25.844Z,7.13
2023-03-02T10:54:04.677Z,7.67
2023-03-02T10:56:33.135Z,6.90
2023-03-02T10:59:03.362Z,7.80
2023-03-02T11:01:32.648Z,7.73
2023-03-02T11:04:02.168Z,7.80
2023-03-02T11:06:31.220Z,8.27
2023-03-02T11:09:00.828Z,7.97
2023-03-02T11:11:28.569Z,8.13
2023-03-02T11:13:57.215Z,8.03
2023-03-02T11:16:28.740Z,6.60
2023-03-02T11:19:01.638Z,7.37
2023-03-02T11:21:32.321Z,7.37
2023-03-02T11:24:08.800Z,7.00
2023-03-02T11:26:40.004Z,8.53
2023-03-02T11:29:13.254Z,6.00
2023-03-02T11:31:44.340Z,7.40
2023-03-02T11:34:22.761Z,7.27
2023-03-02T11:36:59.079Z,7.70
2023-03-02T11:39:32.151Z,7.67
2023-03-02T11:41:59.698Z,6.77
2023-03-02T11:44:27.365Z,9.33
2023-03-02T11:46:59.677Z,6.70
2023-03-02T11:49:38.252Z,8.80
2023-03-02T11:52:06.369Z,6.67
2023-03-02T11:54:37.706Z,6.90
2023-03-02T11:57:05.564Z,6.77
2023-03-02T11:59:36.112Z,6.90
2023-03-02T12:02:04.172Z,6.93
2023-03-02T12:04:35.891Z,6.60
2023-03-02T12:07:05.515Z,6.80
2023-03-02T12:09:36.722Z,6.13
2023-03-02T12:12:36.954Z,7.43
2023-03-02T12:15:05.267Z,5.70
2023-03-02T12:17:34.948Z,5.73
2023-03-02T12:20:23.953Z,6.40
2023-03-02T12:22:53.658Z,6.27
2023-03-02T12:25:30.318Z,5.73
2023-03-02T12:27:57.820Z,7.20
2023-03-02T12:30:27.214Z,6.20
2023-03-02T12:33:13.449Z,6.17
2023-03-02T12:35:42.678Z,6.30
2023-03-02T12:38:28.261Z,6.00
2023-03-02T12:41:17.536Z,6.20
2023-03-02T12:43:48.893Z,6.80
2023-03-02T12:46:31.671Z,6.40
2023-03-02T12:49:07.642Z,6.00
2023-03-02T12:51:47.479Z,6.60
2023-03-02T12:54:17.759Z,7.50
2023-03-02T12:56:45.621Z,5.70
2023-03-02T12:59:24.232Z,7.17
2023-03-02T13:01:51.791Z,5.80
2023-03-02T13:04:27.546Z,5.60
2023-03-02T13:06:56.549Z,5.73
2023-03-02T13:09:24.299Z,5.43
2023-03-02T13:11:54.724Z,6.07
2023-03-02T13:14:25.897Z,6.07
2023-03-02T13:16:58.572Z,5.13
2023-03-02T13:19:26.822Z,6.57
2023-03-02T13:21:55.861Z,6.07
2023-03-02T13:24:30.614Z,6.77
2023-03-02T13:27:00.350Z,5.77
2023-03-02T13:29:31.679Z,6.23
2023-03-02T13:32:02.186Z,5.50
2023-03-02T13:34:30.964Z,6.93
2023-03-02T13:36:59.973Z,5.73
2023-03-02T13:39:29.565Z,5.10
2023-03-02T13:41:58.455Z,5.60
2023-03-02T13:44:28.745Z,5.97
2023-03-02T13:46:56.518Z,5.87
2023-03-02T13:49:28.596Z,6.23
2023-03-02T13:52:02.092Z,5.77
2023-03-02T13:54:31.711Z,5.53
2023-03-02T13:57:02.582Z,5.27
2023-03-02T13:59:32.103Z,5.97
2023-03-02T14:01:59.638Z,6.63
2023-03-02T14:04:27.225Z,5.40
2023-03-02T14:06:55.541Z,6.27
2023-03-02T14:09:27.004Z,6.00
2023-03-02T14:11:56.911Z,6.00
2023-03-02T14:14:26.486Z,5.87
2023-03-02T14:16:54.020Z,6.67
2023-03-02T14:19:22.218Z,5.97
2023-03-02T14:21:49.773Z,5.40
2023-03-02T14:24:17.294Z,6.70
2023-03-02T14:26:47.811Z,6.57
2023-03-02T14:29:22.096Z,6.20
2023-03-02T14:31:49.589Z,6.50
2023-03-02T14:34:17.677Z,6.27
2023-03-02T14:36:48.030Z,6.47
2023-03-02T14:39:21.428Z,7.43
2023-03-02T14:41:53.734Z,6.10
2023-03-02T14:44:22.299Z,6.27
2023-03-02T14:46:49.973Z,6.80
2023-03-02T14:49:17.581Z,7.77
2023-03-02T14:51:46.060Z,6.93
2023-03-02T14:54:15.962Z,5.80
2023-03-02T14:56:44.027Z,6.93
2023-03-02T14:59:15.265Z,6.57
2023-03-02T15:01:44.462Z,6.23
2023-03-02T15:04:12.321Z,6.70
2023-03-02T15:06:41.185Z,7.30
2023-03-02T15:09:09.399Z,6.47
2023-03-02T15:11:36.950Z,6.60
2023-03-02T15:14:04.556Z,7.57
2023-03-02T15:16:33.484Z,6.87
2023-03-02T15:19:00.993Z,6.57
2023-03-02T15:21:28.524Z,5.67
2023-03-02T15:23:56.215Z,6.60
2023-03-02T15:26:23.802Z,6.47
2023-03-02T15:28:52.130Z,6.83
2023-03-02T15:31:21.133Z,6.63
2023-03-02T15:33:52.011Z,6.70
2023-03-02T15:36:19.662Z,6.90
2023-03-02T15:38:50.184Z,6.53
2023-03-02T15:41:18.123Z,7.00
2023-03-02T15:43:46.061Z,6.90
2023-03-02T15:46:13.844Z,6.87
2023-03-02T15:48:41.371Z,8.50
2023-03-02T15:51:11.226Z,6.47
2023-03-02T15:53:39.929Z,7.70
2023-03-02T15:56:08.581Z,8.10
2023-03-02T15:58:36.721Z,7.27
2023-03-02T16:01:08.325Z,9.87
2023-03-02T16:03:36.141Z,8.20
2023-03-02T16:06:03.744Z,6.30
2023-03-02T16:08:32.729Z,8.07
2023-03-02T16:11:02.018Z,7.80
2023-03-02T16:13:30.887Z,7.40
2023-03-02T16:16:01.274Z,7.13
2023-03-02T16:18:29.096Z,7.03
2023-03-02T16:20:56.638Z,7.00
2023-03-02T16:23:24.310Z,5.00
2023-03-02T16:25:53.249Z,5.17
2023-03-02T16:28:21.131Z,8.00
2023-03-02T16:30:49.277Z,4.50
2023-03-02T16:33:18.923Z,4.80
2023-03-02T16:35:48.150Z,4.90
2023-03-02T16:38:16.869Z,5.10
2023-03-02T16:40:44.479Z,5.33
2023-03-02T16:43:13.389Z,5.10
2023-03-02T16:45:41.046Z,5.17
2023-03-02T16:48:08.764Z,5.97
2023-03-02T16:50:36.482Z,4.63
2023-03-02T16:53:04.211Z,5.17
2023-03-02T16:55:31.834Z,5.50
2023-03-02T16:57:59.390Z,5.33
2023-03-02T17:00:30.409Z,5.87
2023-03-02T17:02:58.236Z,4.50
2023-03-02T17:05:25.874Z,4.20
2023-03-02T17:07:53.671Z,4.57
2023-03-02T17:10:22.638Z,5.10
2023-03-02T17:12:50.205Z,4.63
2023-03-02T17:15:17.860Z,4.77
2023-03-02T17:17:46.815Z,4.40
2023-03-02T17:20:16.371Z,4.00
2023-03-02T17:22:44.056Z,3.90
2023-03-02T17:25:12.739Z,3.87
2023-03-02T17:27:41.464Z,5.10
2023-03-02T17:30:12.458Z,3.83
2023-03-02T17:32:40.260Z,3.90
2023-03-02T17:35:11.513Z,4.53
2023-03-02T17:37:39.336Z,3.77
2023-03-02T17:40:08.175Z,4.47
2023-03-02T17:42:35.831Z,3.70
2023-03-02T17:45:03.501Z,4.03
2023-03-02T17:47:32.789Z,4.13
2023-03-02T17:50:01.397Z,4.03
2023-03-02T17:52:30.329Z,3.63
2023-03-02T17:54:57.998Z,3.50
2023-03-02T17:57:25.799Z,3.93
2023-03-02T17:59:53.416Z,4.03
2023-03-02T18:02:29.402Z,4.10
2023-03-02T18:04:57.294Z,4.27
2023-03-02T18:07:24.912Z,3.63
2023-03-02T18:09:53.870Z,3.83
2023-03-02T18:12:21.551Z,3.53
2023-03-02T18:14:49.295Z,3.43
2023-03-02T18:17:19.993Z,4.37
2023-03-02T18:19:48.025Z,3.40
2023-03-02T18:22:15.728Z,4.40
2023-03-02T18:24:43.480Z,4.13
2023-03-02T18:27:12.767Z,3.80
2023-03-02T18:29:40.236Z,3.77
2023-03-02T18:32:07.866Z,6.10
2023-03-02T18:34:35.373Z,5.50
2023-03-02T18:37:03.430Z,5.33
2023-03-02T18:39:31.015Z,4.40
2023-03-02T18:41:58.569Z,5.10
2023-03-02T18:44:28.315Z,4.27
2023-03-02T18:46:56.187Z,3.63
2023-03-02T18:49:24.320Z,3.70
2023-03-02T18:51:52.918Z,4.17
2023-03-02T18:54:20.674Z,3.47
2023-03-02T18:56:48.878Z,4.20
2023-03-02T18:59:17.769Z,4.17
2023-03-02T19:01:47.191Z,4.50
2023-03-02T19:04:15.360Z,4.30
2023-03-02T19:06:43.537Z,4.77
2023-03-02T19:09:11.673Z,4.43
2023-03-02T19:11:39.260Z,4.67
2023-03-02T19:14:06.918Z,3.90
2023-03-02T19:16:39.978Z,4.10
2023-03-02T19:19:09.000Z,4.10
2023-03-02T19:21:36.688Z,4.07
2023-03-02T19:24:04.616Z,4.53
2023-03-02T19:26:32.468Z,3.40
2023-03-02T19:29:06.477Z,4.00
2023-03-02T19:31:47.914Z,4.30
2023-03-02T19:34:36.463Z,4.57
2023-03-02T19:37:08.224Z,5.10
2023-03-02T19:39:36.059Z,4.57
2023-03-02T19:42:03.735Z,4.30
2023-03-02T19:44:31.632Z,4.37
2023-03-02T19:46:59.339Z,4.43
2023-03-02T19:49:28.338Z,4.30
2023-03-02T19:51:56.514Z,3.90
2023-03-02T19:54:24.229Z,4.20
2023-03-02T19:56:53.905Z,4.40
2023-03-02T19:59:22.792Z,4.43
2023-03-02T20:01:51.350Z,4.63
2023-03-02T20:04:19.382Z,9.47
2023-03-02T20:06:48.545Z,4.13
2023-03-02T20:09:19.689Z,6.60
2023-03-02T20:11:47.584Z,4.60
2023-03-02T20:14:31.451Z,4.00
2023-03-02T20:17:01.007Z,4.40
2023-03-02T20:19:28.671Z,4.67
2023-03-02T20:21:57.592Z,5.23
2023-03-02T20:24:25.150Z,3.97
2023-03-02T20:26:52.729Z,4.40
2023-03-02T20:29:20.466Z,3.23
2023-03-02T20:31:48.116Z,4.77
2023-03-02T20:34:16.440Z,5.60
2023-03-02T20:36:44.705Z,3.80
2023-03-02T20:39:17.599Z,4.70
2023-03-02T20:41:45.750Z,5.10
2023-03-02T20:44:14.780Z,4.07
2023-03-02T20:46:46.001Z,5.77
2023-03-02T20:49:15.541Z,5.20
2023-03-02T20:51:49.169Z,5.57
2023-03-02T20:54:18.673Z,5.70
2023-03-02T20:56:46.436Z,6.13
2023-03-02T20:59:14.480Z,5.63
2023-03-02T21:01:43.181Z,4.53
2023-03-02T21:04:10.948Z,6.53
2023-03-02T21:06:38.727Z,4.80
2023-03-02T21:09:08.304Z,5.37
2023-03-02T21:11:38.433Z,7.13
2023-03-02T21:14:06.354Z,5.90
2023-03-02T21:16:37.247Z,5.83
2023-03-02T21:19:05.205Z,6.13
2023-03-02T21:21:41.339Z,6.00
2023-03-02T21:24:09.846Z,6.23
2023-03-02T21:26:41.509Z,6.60
2023-03-02T21:29:09.477Z,5.90
2023-03-02T21:31:37.253Z,6.33
2023-03-02T21:34:05.080Z,5.83
2023-03-02T21:36:33.500Z,7.57
2023-03-02T21:39:01.314Z,6.43
2023-03-02T21:41:29.370Z,6.50
2023-03-02T21:43:58.831Z,6.07
2023-03-02T21:46:26.513Z,4.70
2023-03-02T21:48:54.404Z,7.00
2023-03-02T21:51:23.433Z,5.70
2023-03-02T21:53:52.976Z,4.93
2023-03-02T21:56:23.001Z,5.03
2023-03-02T21:58:51.862Z,5.80
2023-03-02T22:01:21.542Z,5.60
2023-03-02T22:03:49.978Z,5.60
2023-03-02T22:06:19.004Z,5.30
2023-03-02T22:08:46.772Z,5.50
2023-03-02T22:11:19.406Z,4.43
2023-03-02T22:13:53.316Z,5.27
2023-03-02T22:16:26.907Z,5.90
2023-03-02T22:18:56.674Z,5.30
2023-03-02T22:21:29.693Z,6.07
2023-03-02T22:24:02.138Z,6.00
2023-03-02T22:26:30.005Z,5.53
2023-03-02T22:29:04.310Z,6.17
2023-03-02T22:31:33.612Z,6.70
2023-03-02T22:34:01.518Z,6.20
2023-03-02T22:36:32.104Z,5.90
2023-03-02T22:39:01.523Z,6.13
2023-03-02T22:41:29.209Z,7.73
2023-03-02T22:43:57.676Z,5.40
2023-03-02T22:46:26.846Z,5.27
2023-03-02T22:48:55.907Z,5.27
2023-03-02T22:51:26.175Z,5.23
2023-03-02T22:53:55.279Z,6.17
2023-03-02T22:56:29.783Z,5.80
2023-03-02T22:58:57.775Z,5.47
2023-03-02T23:01:27.198Z,5.33
2023-03-02T23:03:59.748Z,5.40
2023-03-02T23:06:30.230Z,5.57
2023-03-02T23:09:00.313Z,5.57
2023-03-02T23:11:28.867Z,5.70
2023-03-02T23:13:56.853Z,6.03
2023-03-02T23:16:26.040Z,6.50
2023-03-02T23:18:56.954Z,7.60
2023-03-02T23:21:28.464Z,6.30
2023-03-02T23:23:56.207Z,6.23
2023-03-02T23:26:23.838Z,6.60
2023-03-02T23:28:54.702Z,6.30
2023-03-02T23:31:22.354Z,7.20
2023-03-02T23:33:49.977Z,8.20
2023-03-02T23:36:21.024Z,6.63
2023-03-02T23:38:49.108Z,6.80
2023-03-02T23:41:17.038Z,6.27
2023-03-02T23:43:44.625Z,6.67
2023-03-02T23:46:13.992Z,7.60
2023-03-02T23:48:42.080Z,6.57
2023-03-02T23:51:09.817Z,6.73
2023-03-02T23:53:38.970Z,6.83
2023-03-02T23:56:07.193Z,7.80
2023-03-02T23:58:34.792Z,7.83
